Time;durP1;ratioP1;P1;durP2;ratioP2;P2;SDS_P1;SDS_P2;PMS_P1;PMS_P2;Temp;Humidity;BMP_temperature;BMP_pressure;BME280_temperature;BME280_humidity;BME280_pressure;Samples;Min_cycle;Max_cycle;Signal;HPM_P1;HPM_P2
2022/08/21 00:00:38;;;;;;;5.32;2.95;;;22.60;85.40;;;;;;5054883;28;20131;-59
2022/08/21 00:03:06;;;;;;;6.07;3.28;;;22.60;85.40;;;;;;5062486;28;20379;-59
2022/08/21 00:05:35;;;;;;;6.60;3.15;;;22.60;85.50;;;;;;5054669;28;20047;-58
2022/08/21 00:08:01;;;;;;;5.57;2.90;;;22.60;85.40;;;;;;5058359;28;20044;-59
2022/08/21 00:10:27;;;;;;;7.20;3.45;;;22.50;85.30;;;;;;5054406;28;20061;-60
2022/08/21 00:12:53;;;;;;;8.02;3.15;;;22.50;85.20;;;;;;5054795;28;20476;-59
2022/08/21 00:15:23;;;;;;;8.48;3.30;;;22.50;85.00;;;;;;5052988;28;20025;-59
2022/08/21 00:17:49;;;;;;;4.28;2.65;;;22.50;84.80;;;;;;5054888;28;20033;-59
2022/08/21 00:20:16;;;;;;;6.20;2.70;;;22.50;84.80;;;;;;5054664;28;20035;-59
2022/08/21 00:22:42;;;;;;;4.80;3.08;;;22.50;84.80;;;;;;5053243;28;20021;-60
2022/08/21 00:25:08;;;;;;;6.70;2.97;;;22.50;84.80;;;;;;5054909;28;20028;-59
2022/08/21 00:27:35;;;;;;;7.93;3.22;;;22.50;84.70;;;;;;5054245;28;20024;-59
2022/08/21 00:30:01;;;;;;;5.78;2.85;;;22.50;84.60;;;;;;5049815;28;20025;-59
2022/08/21 00:32:27;;;;;;;5.00;2.83;;;22.40;84.40;;;;;;5053962;28;20380;-60
2022/08/21 00:34:54;;;;;;;4.88;2.75;;;22.40;84.40;;;;;;5054228;28;20024;-59
2022/08/21 00:37:20;;;;;;;6.55;3.17;;;22.40;84.40;;;;;;5053859;28;20450;-59
2022/08/21 00:39:47;;;;;;;6.38;3.28;;;22.40;84.10;;;;;;5054066;28;20097;-59
2022/08/21 00:42:16;;;;;;;6.65;3.22;;;22.40;83.90;;;;;;5052528;28;20492;-60
2022/08/21 00:44:43;;;;;;;4.95;2.75;;;22.30;83.80;;;;;;5054146;28;20112;-59
2022/08/21 00:47:08;;;;;;;8.70;3.20;;;22.30;83.70;;;;;;5053777;28;20151;-59
2022/08/21 00:49:34;;;;;;;4.55;3.22;;;22.20;83.60;;;;;;5054171;28;20060;-59
2022/08/21 00:52:01;;;;;;;6.57;3.58;;;22.30;83.70;;;;;;5053946;28;20013;-59
2022/08/21 00:54:30;;;;;;;8.10;3.10;;;22.20;83.50;;;;;;5054295;28;20479;-58
2022/08/21 00:57:00;;;;;;;4.80;2.83;;;22.20;83.50;;;;;;5052441;28;20021;-59
2022/08/21 00:59:29;;;;;;;5.40;2.83;;;22.20;83.60;;;;;;5043509;28;20560;-59
2022/08/21 01:01:54;;;;;;;10.13;3.40;;;22.20;83.70;;;;;;5053604;28;20029;-59
2022/08/21 01:04:22;;;;;;;9.07;2.88;;;22.20;83.80;;;;;;5055624;28;20519;-59
2022/08/21 01:06:48;;;;;;;6.05;2.92;;;22.20;83.80;;;;;;5053896;28;20441;-59
2022/08/21 01:09:14;;;;;;;6.47;2.95;;;22.20;83.80;;;;;;5053878;28;20063;-58
2022/08/21 01:11:42;;;;;;;4.80;2.72;;;22.20;83.50;;;;;;5055469;28;20025;-58
2022/08/21 01:14:11;;;;;;;8.27;3.22;;;22.20;83.40;;;;;;5050221;28;20032;-59
2022/08/21 01:16:39;;;;;;;6.43;2.80;;;22.20;83.40;;;;;;5053623;28;20365;-59
2022/08/21 01:19:08;;;;;;;5.93;2.80;;;22.20;83.40;;;;;;5053243;28;20032;-59
2022/08/21 01:21:34;;;;;;;4.38;2.90;;;22.20;83.50;;;;;;5052234;28;20505;-59
2022/08/21 01:24:00;;;;;;;7.60;3.03;;;22.30;83.60;;;;;;5053201;28;20051;-58
2022/08/21 01:26:29;;;;;;;5.25;3.08;;;22.30;83.50;;;;;;5053349;28;20100;-59
2022/08/21 01:29:10;;;;;;;5.95;3.40;;;22.20;83.30;;;;;;5035248;28;20021;-59
2022/08/21 01:31:37;;;;;;;6.63;2.90;;;22.30;83.20;;;;;;5052108;28;20040;-59
2022/08/21 01:34:03;;;;;;;7.68;3.05;;;22.30;83.10;;;;;;5052828;28;20057;-59
2022/08/21 01:36:29;;;;;;;6.40;2.97;;;22.20;82.90;;;;;;5052963;28;20077;-59
2022/08/21 01:38:55;;;;;;;3.85;2.75;;;22.20;82.90;;;;;;5052302;28;20029;-59
2022/08/21 01:41:21;;;;;;;7.75;3.20;;;22.20;83.00;;;;;;5053024;28;20353;-59
2022/08/21 01:43:47;;;;;;;6.95;3.08;;;22.20;83.10;;;;;;5052602;28;20032;-59
2022/08/21 01:46:13;;;;;;;5.95;2.97;;;22.20;83.00;;;;;;5033988;28;20063;-60
2022/08/21 01:48:40;;;;;;;6.80;3.20;;;22.10;82.80;;;;;;5053504;28;20025;-59
2022/08/21 01:51:06;;;;;;;4.50;2.85;;;22.10;82.90;;;;;;5053282;28;20047;-59
2022/08/21 01:53:35;;;;;;;4.78;3.10;;;22.10;82.90;;;;;;5052373;28;20040;-59
2022/08/21 01:56:01;;;;;;;5.75;2.58;;;22.10;82.90;;;;;;5052919;28;20033;-58
2022/08/21 01:58:27;;;;;;;5.90;3.10;;;22.10;83.00;;;;;;5052504;28;20033;-59
2022/08/21 02:00:53;;;;;;;9.38;5.07;;;22.10;83.00;;;;;;5053034;28;20021;-59
2022/08/21 02:03:19;;;;;;;8.15;2.90;;;22.10;83.60;;;;;;5032773;28;20021;-58
2022/08/21 02:05:45;;;;;;;4.72;2.75;;;22.10;82.90;;;;;;5047429;28;20025;-58
2022/08/21 02:08:11;;;;;;;4.35;2.83;;;22.10;82.90;;;;;;5052495;28;20009;-59
2022/08/21 02:10:36;;;;;;;7.03;2.90;;;22.10;83.00;;;;;;5052181;28;20369;-59
2022/08/21 02:13:02;;;;;;;2.60;2.40;;;22.10;83.20;;;;;;5053089;28;20111;-59
2022/08/21 02:15:29;;;;;;;5.60;2.75;;;22.10;83.30;;;;;;5052606;28;20044;-59
2022/08/21 02:17:58;;;;;;;4.82;2.55;;;22.10;83.30;;;;;;5052660;28;20047;-59
2022/08/21 02:20:27;;;;;;;5.90;2.75;;;22.10;83.40;;;;;;5050290;28;20033;-59
2022/08/21 02:22:53;;;;;;;5.22;2.72;;;22.10;83.20;;;;;;5052410;28;20017;-59
2022/08/21 02:25:20;;;;;;;6.25;2.60;;;22.10;83.20;;;;;;5052257;28;20469;-59
2022/08/21 02:27:47;;;;;;;3.75;2.58;;;22.10;83.10;;;;;;5047498;28;20036;-60
2022/08/21 02:30:26;;;;;;;5.03;2.53;;;22.10;83.10;;;;;;5051698;28;20101;-59
2022/08/21 02:32:52;;;;;;;4.60;2.78;;;22.10;83.00;;;;;;5052195;28;20044;-59
2022/08/21 02:35:18;;;;;;;5.72;2.45;;;22.10;82.80;;;;;;5050498;28;20029;-59
2022/08/21 02:37:49;;;;;;;8.40;2.80;;;22.10;82.80;;;;;;5041597;28;20158;-59
2022/08/21 02:40:17;;;;;;;4.45;2.75;;;22.10;82.60;;;;;;5051201;28;20028;-59
2022/08/21 02:42:43;;;;;;;5.35;2.35;;;22.10;82.50;;;;;;5047367;28;20500;-59
2022/08/21 02:45:11;;;;;;;7.35;2.70;;;22.10;82.40;;;;;;5051422;28;20049;-59
2022/08/21 02:47:37;;;;;;;3.50;2.60;;;22.10;82.40;;;;;;5052281;28;20032;-59
2022/08/21 02:50:06;;;;;;;6.30;3.00;;;22.10;82.20;;;;;;5051662;28;20404;-58
2022/08/21 02:52:33;;;;;;;5.60;2.83;;;22.10;82.20;;;;;;5049280;28;20060;-59
2022/08/21 02:54:58;;;;;;;4.32;2.53;;;22.10;82.20;;;;;;5048140;28;20036;-59
2022/08/21 02:57:24;;;;;;;5.78;2.67;;;22.10;82.30;;;;;;5048085;28;20017;-59
2022/08/21 02:59:50;;;;;;;6.20;2.65;;;22.10;82.30;;;;;;5050971;28;20025;-59
2022/08/21 03:02:16;;;;;;;4.05;2.72;;;22.00;82.30;;;;;;5055168;28;20091;-59
2022/08/21 03:04:41;;;;;;;4.90;2.90;;;22.00;82.30;;;;;;5053014;28;20068;-59
2022/08/21 03:07:07;;;;;;;7.70;2.85;;;22.00;82.20;;;;;;5047271;28;20156;-59
2022/08/21 03:09:33;;;;;;;4.50;2.80;;;22.00;82.30;;;;;;5050446;28;20088;-59
2022/08/21 03:11:58;;;;;;;4.72;2.92;;;22.00;82.20;;;;;;5049484;28;20029;-59
2022/08/21 03:14:24;;;;;;;3.58;2.47;;;22.00;82.10;;;;;;5050216;28;20484;-59
2022/08/21 03:16:49;;;;;;;4.75;2.65;;;22.00;82.20;;;;;;5052969;28;20335;-59
2022/08/21 03:19:15;;;;;;;5.57;2.80;;;22.00;82.30;;;;;;5037672;28;20017;-59
2022/08/21 03:21:41;;;;;;;5.60;2.67;;;22.00;82.30;;;;;;5055970;28;20035;-59
2022/08/21 03:24:06;;;;;;;5.05;2.70;;;22.00;82.20;;;;;;5055126;28;20434;-59
2022/08/21 03:26:33;;;;;;;5.07;2.75;;;22.00;82.10;;;;;;5048883;28;20029;-59
2022/08/21 03:28:58;;;;;;;4.00;2.60;;;22.10;82.00;;;;;;5053190;28;20021;-59
2022/08/21 03:31:28;;;;;;;5.10;2.78;;;22.10;81.80;;;;;;5053568;28;20413;-59
2022/08/21 03:33:55;;;;;;;4.43;2.80;;;22.10;81.70;;;;;;5053884;28;20492;-59
2022/08/21 03:36:21;;;;;;;5.97;3.10;;;22.00;81.60;;;;;;5053490;28;20060;-59
2022/08/21 03:38:46;;;;;;;5.88;2.92;;;22.00;81.40;;;;;;5055126;28;20071;-59
2022/08/21 03:41:12;;;;;;;5.20;2.92;;;22.00;81.50;;;;;;5054917;28;20028;-59
2022/08/21 03:43:38;;;;;;;2.92;2.60;;;21.90;81.60;;;;;;5054790;28;20082;-59
2022/08/21 03:46:04;;;;;;;5.28;2.67;;;21.90;81.60;;;;;;5055299;28;20491;-58
2022/08/21 03:48:31;;;;;;;5.20;2.80;;;21.90;81.80;;;;;;5054833;28;20075;-59
2022/08/21 03:50:56;;;;;;;3.60;2.85;;;21.90;81.90;;;;;;5054740;28;20029;-59
2022/08/21 03:53:22;;;;;;;4.45;2.80;;;21.80;82.00;;;;;;5053593;28;20039;-59
2022/08/21 03:55:50;;;;;;;6.35;2.78;;;21.80;82.20;;;;;;5050275;28;20048;-58
2022/08/21 03:58:23;;;;;;;6.32;2.55;;;21.90;82.50;;;;;;5054875;28;20111;-59
2022/08/21 04:00:52;;;;;;;5.57;3.22;;;21.90;82.60;;;;;;5054973;28;20091;-59
2022/08/21 04:03:18;;;;;;;5.88;2.72;;;21.90;82.50;;;;;;5058760;28;20099;-59
2022/08/21 04:05:45;;;;;;;6.22;2.95;;;21.90;82.60;;;;;;5054969;28;20010;-59
2022/08/21 04:08:12;;;;;;;5.28;2.88;;;21.90;82.80;;;;;;5055008;28;20116;-59
2022/08/21 04:10:39;;;;;;;3.70;2.63;;;22.00;82.90;;;;;;5051693;28;20060;-58
2022/08/21 04:13:07;;;;;;;5.85;3.10;;;22.10;83.00;;;;;;5055476;28;20108;-59
2022/08/21 04:15:33;;;;;;;6.45;2.90;;;22.10;82.80;;;;;;5054141;28;20104;-59
2022/08/21 04:17:59;;;;;;;5.45;3.00;;;22.20;82.60;;;;;;5054895;28;20112;-59
2022/08/21 04:20:26;;;;;;;3.63;3.10;;;22.20;82.30;;;;;;5054702;28;20504;-59
2022/08/21 04:22:52;;;;;;;3.67;2.65;;;22.20;82.20;;;;;;5054538;28;20025;-58
2022/08/21 04:25:19;;;;;;;5.97;2.85;;;22.30;82.20;;;;;;5033404;28;20580;-58
2022/08/21 04:27:45;;;;;;;4.20;2.38;;;22.40;82.20;;;;;;5052543;28;20112;-59
2022/08/21 04:30:12;;;;;;;5.40;2.60;;;22.30;82.00;;;;;;5054548;28;20508;-59
2022/08/21 04:32:41;;;;;;;5.88;3.00;;;22.40;82.00;;;;;;5053728;28;20034;-59
2022/08/21 04:35:10;;;;;;;6.22;3.00;;;22.40;82.10;;;;;;5053269;28;20473;-59
2022/08/21 04:37:36;;;;;;;6.30;2.75;;;22.50;81.90;;;;;;5053683;28;20024;-59
2022/08/21 04:40:02;;;;;;;5.72;2.88;;;22.60;81.60;;;;;;5050530;28;20185;-59
2022/08/21 04:42:28;;;;;;;5.55;2.92;;;22.60;81.40;;;;;;5052366;28;20029;-58
2022/08/21 04:44:56;;;;;;;7.95;2.50;;;22.60;81.30;;;;;;5053957;28;20072;-59
2022/08/21 04:47:22;;;;;;;6.38;3.20;;;22.60;81.10;;;;;;5054230;28;20024;-58
2022/08/21 04:49:48;;;;;;;4.78;2.95;;;22.60;81.20;;;;;;5051907;28;20029;-60
2022/08/21 04:52:17;;;;;;;4.78;2.70;;;22.70;81.20;;;;;;5053906;28;20075;-59
2022/08/21 04:54:45;;;;;;;5.03;3.10;;;22.70;81.10;;;;;;5048584;28;20021;-59
2022/08/21 04:57:11;;;;;;;5.78;2.90;;;22.80;80.80;;;;;;5053783;28;20036;-59
2022/08/21 04:59:45;;;;;;;5.15;2.70;;;22.80;81.10;;;;;;5051849;28;20041;-59
2022/08/21 05:02:13;;;;;;;5.57;2.40;;;22.90;80.50;;;;;;5053659;28;20021;-59
2022/08/21 05:04:46;;;;;;;6.13;2.60;;;22.90;80.50;;;;;;5053828;28;20358;-59
2022/08/21 05:07:17;;;;;;;5.22;2.42;;;23.00;80.10;;;;;;5059439;28;20029;-59
2022/08/21 05:09:43;;;;;;;6.30;2.75;;;23.00;79.90;;;;;;5049805;28;20373;-59
2022/08/21 05:12:10;;;;;;;5.35;2.47;;;23.10;79.60;;;;;;5057181;28;20021;-59
2022/08/21 05:14:35;;;;;;;5.40;2.70;;;23.20;79.50;;;;;;5051162;28;20059;-59
2022/08/21 05:17:01;;;;;;;5.68;2.67;;;23.20;79.20;;;;;;5053443;28;20052;-58
2022/08/21 05:19:27;;;;;;;4.88;2.60;;;23.30;79.00;;;;;;5053177;28;20378;-59
2022/08/21 05:21:53;;;;;;;4.97;2.50;;;23.50;78.50;;;;;;5053041;28;20071;-59
2022/08/21 05:24:19;;;;;;;5.30;2.75;;;23.60;77.90;;;;;;5053124;28;20025;-59
2022/08/21 05:26:45;;;;;;;3.58;2.40;;;23.70;76.90;;;;;;5050572;28;20029;-59
2022/08/21 05:29:11;;;;;;;7.47;2.78;;;23.70;77.00;;;;;;5053671;28;20017;-59
2022/08/21 05:31:37;;;;;;;3.67;2.53;;;23.70;77.10;;;;;;5051106;28;20029;-59
2022/08/21 05:34:03;;;;;;;3.65;2.42;;;23.80;76.50;;;;;;5034668;28;20503;-59
2022/08/21 05:36:30;;;;;;;4.53;2.35;;;23.80;76.00;;;;;;5049642;28;20032;-59
2022/08/21 05:38:55;;;;;;;8.23;2.88;;;23.90;75.90;;;;;;5048751;28;20044;-59
2022/08/21 05:41:21;;;;;;;7.18;2.58;;;23.80;75.90;;;;;;5052550;28;20480;-59
2022/08/21 05:43:47;;;;;;;5.93;2.60;;;23.70;76.00;;;;;;5052758;28;20040;-59
2022/08/21 05:46:12;;;;;;;5.28;2.40;;;23.70;76.00;;;;;;5052601;28;20013;-59
2022/08/21 05:48:38;;;;;;;6.65;2.70;;;23.70;76.20;;;;;;5051493;28;20025;-59
2022/08/21 05:51:07;;;;;;;6.07;2.28;;;23.70;76.10;;;;;;5058534;28;20057;-59
2022/08/21 05:53:33;;;;;;;5.55;2.58;;;23.70;76.20;;;;;;5047471;28;20033;-59
2022/08/21 05:55:58;;;;;;;5.93;2.58;;;23.60;76.10;;;;;;5053037;28;20031;-59
2022/08/21 05:58:24;;;;;;;5.03;2.67;;;23.60;76.00;;;;;;5052676;28;20035;-59
2022/08/21 06:00:51;;;;;;;6.80;2.53;;;23.70;75.90;;;;;;5044659;28;20025;-59
2022/08/21 06:03:21;;;;;;;4.78;2.67;;;23.60;75.90;;;;;;5052460;28;20108;-59
2022/08/21 06:05:47;;;;;;;6.83;2.70;;;23.60;75.80;;;;;;5058113;28;20021;-59
2022/08/21 06:08:15;;;;;;;5.72;2.40;;;23.60;75.90;;;;;;5047656;28;20468;-59
2022/08/21 06:10:42;;;;;;;3.97;2.97;;;23.60;75.80;;;;;;5056264;28;20392;-59
2022/08/21 06:13:08;;;;;;;7.75;2.95;;;23.60;75.70;;;;;;5052183;28;20421;-58
2022/08/21 06:15:34;;;;;;;5.70;2.70;;;23.60;75.80;;;;;;5052424;28;20059;-59
2022/08/21 06:18:00;;;;;;;3.53;2.28;;;23.60;75.60;;;;;;5052071;28;20100;-59
2022/08/21 06:20:32;;;;;;;7.55;2.50;;;23.50;75.40;;;;;;5052626;28;20488;-59
2022/08/21 06:22:58;;;;;;;5.50;2.85;;;23.50;75.60;;;;;;5043320;28;20064;-59
2022/08/21 06:25:24;;;;;;;5.45;2.83;;;23.50;75.40;;;;;;5050616;28;20441;-59
2022/08/21 06:27:50;;;;;;;6.35;2.88;;;23.50;75.70;;;;;;5052329;28;20031;-60
2022/08/21 06:30:17;;;;;;;8.95;2.60;;;23.50;75.70;;;;;;5051022;28;20025;-59
2022/08/21 06:32:42;;;;;;;6.80;2.30;;;23.50;75.60;;;;;;5057177;28;20024;-59
2022/08/21 06:35:09;;;;;;;4.68;2.53;;;23.50;75.70;;;;;;5054345;28;20104;-59
2022/08/21 06:37:34;;;;;;;4.15;2.30;;;23.50;75.70;;;;;;5049085;28;20024;-59
2022/08/21 06:40:00;;;;;;;2.92;2.05;;;23.50;75.40;;;;;;5048198;28;20025;-59
2022/08/21 06:42:27;;;;;;;4.03;2.30;;;23.50;75.70;;;;;;5051562;28;20151;-59
2022/08/21 06:44:53;;;;;;;3.58;2.60;;;23.50;75.40;;;;;;5052042;28;20460;-59
2022/08/21 06:47:19;;;;;;;4.57;2.75;;;23.50;75.40;;;;;;5052277;28;20017;-59
2022/08/21 06:49:45;;;;;;;5.80;2.65;;;23.50;75.40;;;;;;5034132;28;20079;-59
2022/08/21 06:52:12;;;;;;;3.92;2.35;;;23.50;75.40;;;;;;5051442;28;20021;-59
2022/08/21 06:54:39;;;;;;;4.57;2.63;;;23.50;75.70;;;;;;5051827;28;20029;-59
2022/08/21 06:57:05;;;;;;;5.00;2.42;;;23.60;75.50;;;;;;5055035;28;20481;-59
2022/08/21 06:59:31;;;;;;;3.95;2.45;;;23.50;75.40;;;;;;5055829;28;20025;-59
2022/08/21 07:01:58;;;;;;;5.43;2.63;;;23.50;75.50;;;;;;5049701;28;20021;-59
2022/08/21 07:04:24;;;;;;;2.70;1.98;;;23.50;75.50;;;;;;5054863;28;20029;-59
2022/08/21 07:06:49;;;;;;;6.72;2.70;;;23.60;75.60;;;;;;5058465;28;20036;-59
2022/08/21 07:09:15;;;;;;;6.45;2.72;;;23.60;75.40;;;;;;5055891;28;20021;-59
2022/08/21 07:11:41;;;;;;;7.25;2.63;;;23.60;75.20;;;;;;5059367;28;20031;-59
2022/08/21 07:14:07;;;;;;;4.82;2.45;;;23.60;75.30;;;;;;5053732;28;20063;-59
2022/08/21 07:16:32;;;;;;;3.13;2.35;;;23.60;75.00;;;;;;5044822;28;20053;-60
2022/08/21 07:18:59;;;;;;;3.72;2.53;;;23.50;75.00;;;;;;5056131;28;20033;-59
2022/08/21 07:21:24;;;;;;;6.20;2.58;;;23.50;75.00;;;;;;5050372;28;20094;-59
2022/08/21 07:23:51;;;;;;;4.13;2.17;;;23.50;75.10;;;;;;5055416;28;20025;-59
2022/08/21 07:26:20;;;;;;;3.00;2.30;;;23.50;75.20;;;;;;5055787;28;20021;-58
2022/08/21 07:28:46;;;;;;;4.43;2.55;;;23.50;74.90;;;;;;5055689;28;20060;-58
2022/08/21 07:31:15;;;;;;;2.65;2.10;;;23.50;75.00;;;;;;5053406;28;20460;-59
2022/08/21 07:33:42;;;;;;;7.60;2.97;;;23.50;75.10;;;;;;5056390;28;20131;-59
2022/08/21 07:36:08;;;;;;;4.22;2.50;;;23.50;75.30;;;;;;5052304;28;20037;-59
2022/08/21 07:38:34;;;;;;;4.93;2.60;;;23.60;75.20;;;;;;5052309;28;20032;-59
2022/08/21 07:41:01;;;;;;;6.05;3.22;;;23.60;74.90;;;;;;5055229;28;20028;-58
2022/08/21 07:43:28;;;;;;;3.08;2.60;;;23.60;75.00;;;;;;5055060;28;20029;-58
2022/08/21 07:45:54;;;;;;;5.57;2.50;;;23.60;74.90;;;;;;5055260;28;20048;-58
2022/08/21 07:48:23;;;;;;;6.20;2.60;;;23.70;75.10;;;;;;5055102;28;20021;-59
2022/08/21 07:50:49;;;;;;;5.38;2.17;;;23.70;74.90;;;;;;5053438;28;20473;-59
2022/08/21 07:53:15;;;;;;;2.67;2.22;;;23.70;74.90;;;;;;5047549;28;20382;-58
2022/08/21 07:55:41;;;;;;;2.95;2.45;;;23.70;74.60;;;;;;5053624;28;20025;-58
2022/08/21 07:58:07;;;;;;;2.30;1.80;;;23.70;74.50;;;;;;5052839;28;20044;-59
2022/08/21 08:00:33;;;;;;;4.45;2.47;;;23.70;74.70;;;;;;5053073;28;20508;-59
2022/08/21 08:02:59;;;;;;;2.47;2.15;;;23.70;74.80;;;;;;5051564;28;20388;-58
2022/08/21 08:05:27;;;;;;;5.40;2.35;;;23.80;74.80;;;;;;5057005;28;20020;-58
2022/08/21 08:07:54;;;;;;;5.50;2.40;;;23.80;74.80;;;;;;5052477;28;20044;-59
2022/08/21 08:10:21;;;;;;;5.53;2.47;;;23.90;74.90;;;;;;5045483;28;20087;-59
2022/08/21 08:12:47;;;;;;;5.20;2.50;;;23.90;74.50;;;;;;5052561;28;20096;-59
2022/08/21 08:15:19;;;;;;;9.57;2.95;;;23.90;74.20;;;;;;5053144;28;20396;-59
2022/08/21 08:17:46;;;;;;;2.83;2.10;;;23.90;74.20;;;;;;5052501;28;20017;-58
2022/08/21 08:20:14;;;;;;;5.55;3.05;;;23.90;74.10;;;;;;5053384;28;20037;-59
2022/08/21 08:22:41;;;;;;;3.75;2.40;;;23.80;73.90;;;;;;5053402;28;20029;-59
2022/08/21 08:25:08;;;;;;;4.00;2.03;;;23.80;73.80;;;;;;5053598;28;20048;-58
2022/08/21 08:27:34;;;;;;;3.13;1.73;;;23.80;74.20;;;;;;5051401;28;20035;-59
2022/08/21 08:29:59;;;;;;;5.45;2.50;;;23.80;74.40;;;;;;5052609;28;20035;-58
2022/08/21 08:32:25;;;;;;;5.85;2.60;;;23.70;74.00;;;;;;5051921;28;20032;-58
2022/08/21 08:34:51;;;;;;;4.57;2.10;;;23.70;73.90;;;;;;5052890;28;20025;-58
2022/08/21 08:37:18;;;;;;;5.85;3.03;;;23.70;74.00;;;;;;5051006;28;20036;-58
2022/08/21 08:39:44;;;;;;;5.03;2.75;;;23.70;74.10;;;;;;5053227;28;20463;-58
2022/08/21 08:42:20;;;;;;;2.58;2.17;;;23.70;74.00;;;;;;5051307;28;20017;-59
2022/08/21 08:44:47;;;;;;;3.35;2.03;;;23.60;74.00;;;;;;5053487;28;20040;-58
2022/08/21 08:47:16;;;;;;;8.68;2.40;;;23.60;74.00;;;;;;5053532;28;20025;-58
2022/08/21 08:49:58;;;;;;;4.10;2.30;;;23.60;74.10;;;;;;5053339;28;20025;-58
2022/08/21 08:52:33;;;;;;;4.50;2.42;;;23.60;74.30;;;;;;5052774;28;20032;-58
2022/08/21 08:55:08;;;;;;;1.75;1.63;;;23.60;74.20;;;;;;5053532;28;20096;-58
2022/08/21 08:57:35;;;;;;;2.53;1.55;;;23.70;75.00;;;;;;5044728;28;20393;-57
2022/08/21 09:00:09;;;;;;;3.70;2.38;;;23.70;74.40;;;;;;5038269;28;20495;-59
2022/08/21 09:02:35;;;;;;;7.10;2.38;;;23.70;74.30;;;;;;5048422;28;20212;-58
2022/08/21 09:05:01;;;;;;;3.55;2.10;;;23.70;74.30;;;;;;5050760;28;20022;-60
2022/08/21 09:07:38;;;;;;;5.82;2.42;;;23.70;74.20;;;;;;5049977;28;20059;-58
2022/08/21 09:10:36;;;;;;;2.83;2.30;;;23.70;74.30;;;;;;5052419;28;20380;-58
2022/08/21 09:13:38;;;;;;;2.70;2.10;;;23.70;74.20;;;;;;5040486;28;20076;-58
2022/08/21 09:16:41;;;;;;;2.95;2.10;;;23.70;74.50;;;;;;5042401;28;20032;-58
2022/08/21 09:19:34;;;;;;;4.30;2.53;;;23.70;74.40;;;;;;5048468;28;20029;-58
2022/08/21 09:22:13;;;;;;;4.32;2.03;;;23.60;74.50;;;;;;5043884;28;20036;-58
2022/08/21 09:24:57;;;;;;;4.53;2.15;;;23.70;74.50;;;;;;5046760;28;20615;-58
2022/08/21 09:27:23;;;;;;;1.83;1.60;;;23.70;74.50;;;;;;5047583;28;20028;-58
2022/08/21 09:29:52;;;;;;;3.95;2.40;;;23.70;74.60;;;;;;5045772;28;20021;-58
2022/08/21 09:32:21;;;;;;;3.70;2.20;;;23.70;74.50;;;;;;5047628;28;20018;-58
2022/08/21 09:34:59;;;;;;;4.47;2.20;;;23.70;74.60;;;;;;5047759;28;20563;-58
2022/08/21 09:37:29;;;;;;;5.45;2.30;;;23.60;74.50;;;;;;5050005;28;20025;-59
2022/08/21 09:39:57;;;;;;;4.40;2.10;;;23.60;74.50;;;;;;5049306;28;20072;-58
2022/08/21 09:42:31;;;;;;;4.25;2.30;;;23.70;74.70;;;;;;5048042;28;20425;-59
2022/08/21 09:45:06;;;;;;;4.10;2.22;;;23.70;74.80;;;;;;5048833;28;20393;-59
2022/08/21 09:47:32;;;;;;;3.35;2.17;;;23.70;74.90;;;;;;5049993;28;20035;-59
2022/08/21 09:50:08;;;;;;;2.95;2.00;;;23.70;74.50;;;;;;5049039;28;20488;-58
2022/08/21 09:52:34;;;;;;;4.00;2.25;;;23.70;74.50;;;;;;5047201;28;20086;-58
2022/08/21 09:57:37;;;;;;;5.50;2.38;;;23.80;74.60;;;;;;5045298;28;20025;-58
2022/08/21 09:57:47;;;;;;;2.75;2.00;;;23.80;74.40;;;;;;5042299;28;20060;-59
2022/08/21 10:00:19;;;;;;;6.05;2.55;;;23.80;74.50;;;;;;5045480;28;20485;-58
2022/08/21 10:02:45;;;;;;;3.45;2.03;;;23.80;74.40;;;;;;5043432;28;20037;-59
2022/08/21 10:05:24;;;;;;;2.50;2.22;;;23.80;74.10;;;;;;5046693;28;20032;-59
2022/08/21 10:07:50;;;;;;;3.95;2.35;;;23.90;74.20;;;;;;5042504;28;20075;-58
2022/08/21 10:10:30;;;;;;;6.68;2.38;;;23.90;74.20;;;;;;5044820;28;20070;-58
2022/08/21 10:13:03;;;;;;;4.15;2.03;;;23.90;74.00;;;;;;5044162;28;20025;-58
2022/08/21 10:15:41;;;;;;;4.55;2.03;;;23.90;74.20;;;;;;5047097;28;20045;-58
2022/08/21 10:18:20;;;;;;;3.33;2.38;;;23.90;74.30;;;;;;5047291;28;20025;-58
2022/08/21 10:20:58;;;;;;;3.15;2.30;;;23.90;74.50;;;;;;5045430;28;20100;-58
2022/08/21 10:23:36;;;;;;;2.85;2.03;;;23.90;74.20;;;;;;5047957;28;20481;-59
2022/08/21 10:26:12;;;;;;;3.60;2.30;;;23.90;74.00;;;;;;5049025;28;20170;-58
2022/08/21 10:28:49;;;;;;;4.68;2.40;;;23.90;74.00;;;;;;5046565;28;20102;-58
2022/08/21 10:31:44;;;;;;;3.13;2.08;;;23.90;74.00;;;;;;5043388;28;20063;-59
2022/08/21 10:34:24;;;;;;;2.35;1.70;;;23.90;74.00;;;;;;5042462;28;20616;-58
2022/08/21 10:37:18;;;;;;;3.33;2.30;;;23.90;74.00;;;;;;5042762;28;20389;-59
2022/08/21 10:40:09;;;;;;;2.08;1.88;;;23.90;74.20;;;;;;5042683;28;20033;-62
2022/08/21 10:43:13;;;;;;;3.35;2.05;;;24.00;74.30;;;;;;5047051;28;20029;-62
2022/08/21 10:46:10;;;;;;;2.10;1.90;;;24.00;74.50;;;;;;5042421;28;20025;-62
2022/08/21 10:48:43;;;;;;;8.02;2.58;;;24.00;74.40;;;;;;5049688;28;20021;-62
2022/08/21 10:51:21;;;;;;;5.05;2.58;;;24.00;74.20;;;;;;5050813;28;20021;-62
2022/08/21 10:54:06;;;;;;;2.90;1.88;;;24.10;75.10;;;;;;5047772;28;20054;-62
2022/08/21 10:56:36;;;;;;;5.72;2.72;;;24.10;74.30;;;;;;5043702;28;20098;-62
2022/08/21 10:59:49;;;;;;;3.33;2.30;;;24.10;74.20;;;;;;5044925;28;20453;-62
2022/08/21 11:02:36;;;;;;;5.32;2.38;;;24.20;74.00;;;;;;4959863;28;20038;-62
2022/08/21 11:05:11;;;;;;;5.15;2.13;;;24.20;73.80;;;;;;4965770;28;20043;-62
2022/08/21 11:08:01;;;;;;;6.72;2.47;;;24.20;74.00;;;;;;5018054;28;20117;-62
2022/08/21 11:11:04;;;;;;;2.83;1.90;;;24.20;73.70;;;;;;5048029;28;20125;-62
2022/08/21 11:13:43;;;;;;;3.78;2.17;;;24.30;73.30;;;;;;5032204;28;20451;-62
2022/08/21 11:16:23;;;;;;;4.10;2.38;;;24.20;73.30;;;;;;5045398;28;20025;-62
2022/08/21 11:19:10;;;;;;;2.72;2.20;;;24.30;73.00;;;;;;5044423;28;20033;-62
2022/08/21 11:21:56;;;;;;;2.15;1.73;;;24.30;72.70;;;;;;5044848;28;20037;-62
2022/08/21 11:24:51;;;;;;;3.58;2.58;;;24.40;72.70;;;;;;5025485;28;20109;-62
2022/08/21 11:27:28;;;;;;;4.53;2.38;;;24.40;72.50;;;;;;5040938;28;20202;-62
2022/08/21 11:29:59;;;;;;;2.55;1.85;;;24.40;72.40;;;;;;5046434;28;20029;-62
2022/08/21 11:32:28;;;;;;;;;;;24.40;72.10;;;;;;5045390;28;20025;-62
2022/08/21 11:35:04;;;;;;;3.40;2.05;;;24.50;71.90;;;;;;5047488;28;19995;-62
2022/08/21 11:37:56;;;;;;;4.82;2.00;;;24.50;72.10;;;;;;5045492;28;20079;-62
2022/08/21 11:40:47;;;;;;;5.75;2.10;;;24.50;72.20;;;;;;5046579;28;20025;-62
2022/08/21 11:43:21;;;;;;;3.55;2.20;;;24.50;72.00;;;;;;5047645;28;20495;-62
2022/08/21 11:45:58;;;;;;;3.25;2.10;;;24.60;72.10;;;;;;5048850;28;20096;-62
2022/08/21 11:48:47;;;;;;;3.50;2.30;;;24.60;72.10;;;;;;5051378;28;20029;-62
2022/08/21 11:51:24;;;;;;;3.35;2.08;;;24.60;72.00;;;;;;5048037;28;20028;-62
2022/08/21 11:54:10;;;;;;;2.92;2.08;;;24.60;72.10;;;;;;5033780;28;20171;-62
2022/08/21 11:56:45;;;;;;;2.80;1.80;;;24.60;71.90;;;;;;5049305;28;20060;-62
2022/08/21 11:59:20;;;;;;;3.45;1.95;;;24.70;72.30;;;;;;5049177;28;20074;-62
2022/08/21 12:01:48;;;;;;;2.63;1.60;;;24.60;71.50;;;;;;5049866;28;20030;-62
2022/08/21 12:04:32;;;;;;;3.75;1.77;;;24.70;71.30;;;;;;5049919;28;20453;-62
2022/08/21 12:07:13;;;;;;;4.13;1.90;;;24.70;71.00;;;;;;5049033;28;20107;-62
2022/08/21 12:09:38;;;;;;;;;;;24.70;71.20;;;;;;5050041;28;20029;-62
2022/08/21 12:12:25;;;;;;;4.00;2.05;;;24.70;70.60;;;;;;5033668;28;19915;-62
2022/08/21 12:15:03;;;;;;;3.20;1.95;;;24.70;71.00;;;;;;5051332;28;20575;-62
2022/08/21 12:17:37;;;;;;;3.97;2.20;;;24.70;71.40;;;;;;5049431;28;20032;-62
2022/08/21 12:20:20;;;;;;;2.30;1.70;;;24.80;71.50;;;;;;5049199;28;20079;-62
2022/08/21 12:23:05;;;;;;;3.65;1.90;;;24.80;71.60;;;;;;5049440;28;20036;-62
2022/08/21 12:25:42;;;;;;;4.22;2.10;;;24.80;72.00;;;;;;5050524;28;20039;-62
2022/08/21 12:28:22;;;;;;;2.70;1.55;;;24.80;71.70;;;;;;5050356;28;20036;-62
2022/08/21 12:30:49;;;;;;;5.03;1.73;;;24.80;71.80;;;;;;5047149;28;20692;-62
2022/08/21 12:33:30;;;;;;;4.95;2.13;;;24.80;71.90;;;;;;5053908;28;20099;-62
2022/08/21 12:36:11;;;;;;;2.97;1.85;;;24.80;71.80;;;;;;5049248;28;20025;-62
2022/08/21 12:39:00;;;;;;;4.38;2.03;;;24.80;71.90;;;;;;5045150;28;20032;-62
2022/08/21 12:41:56;;;;;;;3.50;1.80;;;24.80;72.20;;;;;;5047012;28;20032;-61
2022/08/21 12:44:39;;;;;;;4.35;2.22;;;24.80;72.20;;;;;;5006240;28;20122;-62
2022/08/21 12:47:41;;;;;;;4.57;2.10;;;24.80;72.20;;;;;;5048557;28;20033;-62
2022/08/21 12:50:16;;;;;;;6.43;2.42;;;24.80;72.00;;;;;;5049787;28;20025;-62
2022/08/21 12:52:53;;;;;;;2.13;1.70;;;24.90;72.20;;;;;;5048403;28;20033;-62
2022/08/21 12:55:30;;;;;;;4.43;2.10;;;24.80;72.20;;;;;;5046149;28;20025;-62
2022/08/21 12:57:57;;;;;;;3.97;2.08;;;24.90;72.40;;;;;;5047908;28;20021;-62
2022/08/21 13:00:26;;;;;;;7.00;2.55;;;24.90;72.40;;;;;;5047970;28;20029;-62
2022/08/21 13:02:54;;;;;;;3.97;1.65;;;24.90;72.20;;;;;;5047696;28;20452;-62
2022/08/21 13:05:40;;;;;;;6.38;3.22;;;24.90;72.50;;;;;;5052525;28;20472;-62